sensor_id;sensor_type;location;lat;lon;timestamp;pressure;altitude;pressure_sealevel;temperature;humidity
7264;BME280;3673;52.480;13.348;2024-03-07T00:00:10;102208.34;;;11.44;61.53
7264;BME280;3673;52.480;13.348;2024-03-07T00:02:41;102212.94;;;11.12;62.26
7264;BME280;3673;52.480;13.348;2024-03-07T00:05:09;102221.41;;;11.42;61.45
7264;BME280;3673;52.480;13.348;2024-03-07T00:07:37;102223.75;;;11.28;62.10
7264;BME280;3673;52.480;13.348;2024-03-07T00:10:04;102218.16;;;11.12;62.21
7264;BME280;3673;52.480;13.348;2024-03-07T00:12:33;102209.66;;;11.22;61.62
7264;BME280;3673;52.480;13.348;2024-03-07T00:15:01;102226.69;;;11.02;62.11
7264;BME280;3673;52.480;13.348;2024-03-07T00:17:28;102215.06;;;11.29;61.86
7264;BME280;3673;52.480;13.348;2024-03-07T00:19:54;102210.81;;;11.37;61.00
7264;BME280;3673;52.480;13.348;2024-03-07T00:22:23;102217.22;;;11.52;60.86
7264;BME280;3673;52.480;13.348;2024-03-07T00:24:52;102219.47;;;11.32;61.00
7264;BME280;3673;52.480;13.348;2024-03-07T00:27:19;102219.50;;;11.35;61.19
7264;BME280;3673;52.480;13.348;2024-03-07T00:29:46;102214.94;;;11.23;61.13
7264;BME280;3673;52.480;13.348;2024-03-07T00:32:18;102220.25;;;11.71;60.16
7264;BME280;3673;52.480;13.348;2024-03-07T00:34:45;102221.25;;;11.34;60.81
7264;BME280;3673;52.480;13.348;2024-03-07T00:37:12;102218.78;;;11.42;60.88
7264;BME280;3673;52.480;13.348;2024-03-07T00:39:41;102223.94;;;11.37;60.82
7264;BME280;3673;52.480;13.348;2024-03-07T00:42:08;102212.38;;;11.71;59.69
7264;BME280;3673;52.480;13.348;2024-03-07T00:44:34;102219.16;;;11.62;59.80
7264;BME280;3673;52.480;13.348;2024-03-07T00:47:02;102210.34;;;11.57;60.15
7264;BME280;3673;52.480;13.348;2024-03-07T00:49:30;102218.38;;;11.66;59.94
7264;BME280;3673;52.480;13.348;2024-03-07T00:51:57;102214.59;;;11.52;60.30
7264;BME280;3673;52.480;13.348;2024-03-07T00:54:24;102218.00;;;11.46;60.18
7264;BME280;3673;52.480;13.348;2024-03-07T00:56:52;102214.84;;;11.64;59.83
7264;BME280;3673;52.480;13.348;2024-03-07T00:59:20;102206.28;;;11.72;59.30
7264;BME280;3673;52.480;13.348;2024-03-07T01:01:47;102220.03;;;11.62;59.49
7264;BME280;3673;52.480;13.348;2024-03-07T01:04:14;102219.78;;;11.49;59.04
7264;BME280;3673;52.480;13.348;2024-03-07T01:06:41;102206.78;;;11.55;59.57
7264;BME280;3673;52.480;13.348;2024-03-07T01:09:08;102206.94;;;11.61;59.53
7264;BME280;3673;52.480;13.348;2024-03-07T01:11:40;102207.38;;;11.83;59.13
7264;BME280;3673;52.480;13.348;2024-03-07T01:14:08;102204.56;;;11.73;58.58
7264;BME280;3673;52.480;13.348;2024-03-07T01:16:35;102209.56;;;11.61;59.12
7264;BME280;3673;52.480;13.348;2024-03-07T01:19:02;102201.75;;;11.65;59.01
7264;BME280;3673;52.480;13.348;2024-03-07T01:21:32;102203.63;;;11.71;58.49
7264;BME280;3673;52.480;13.348;2024-03-07T01:23:59;102206.78;;;11.55;58.67
7264;BME280;3673;52.480;13.348;2024-03-07T01:26:27;102201.50;;;11.52;58.86
7264;BME280;3673;52.480;13.348;2024-03-07T01:28:54;102213.25;;;11.70;58.46
7264;BME280;3673;52.480;13.348;2024-03-07T01:31:23;102208.88;;;11.71;57.88
7264;BME280;3673;52.480;13.348;2024-03-07T01:33:50;102205.69;;;11.42;58.32
7264;BME280;3673;52.480;13.348;2024-03-07T01:36:18;102203.94;;;11.43;58.84
7264;BME280;3673;52.480;13.348;2024-03-07T01:38:45;102206.50;;;11.40;58.53
7264;BME280;3673;52.480;13.348;2024-03-07T01:41:12;102205.00;;;11.51;57.85
7264;BME280;3673;52.480;13.348;2024-03-07T01:43:40;102208.75;;;11.21;58.72
7264;BME280;3673;52.480;13.348;2024-03-07T01:46:07;102203.78;;;11.35;58.14
7264;BME280;3673;52.480;13.348;2024-03-07T01:48:37;102209.91;;;11.34;57.55
7264;BME280;3673;52.480;13.348;2024-03-07T01:51:06;102207.19;;;11.29;58.35
7264;BME280;3673;52.480;13.348;2024-03-07T01:53:33;102210.75;;;11.33;57.54
7264;BME280;3673;52.480;13.348;2024-03-07T01:56:02;102206.81;;;11.11;58.17
7264;BME280;3673;52.480;13.348;2024-03-07T01:58:30;102211.47;;;11.26;58.00
7264;BME280;3673;52.480;13.348;2024-03-07T02:00:57;102211.59;;;11.30;57.50
7264;BME280;3673;52.480;13.348;2024-03-07T02:03:24;102206.81;;;11.11;58.29
7264;BME280;3673;52.480;13.348;2024-03-07T02:05:53;102212.97;;;11.13;58.22
7264;BME280;3673;52.480;13.348;2024-03-07T02:08:19;102203.84;;;11.36;57.33
7264;BME280;3673;52.480;13.348;2024-03-07T02:10:46;102200.66;;;11.54;57.50
7264;BME280;3673;52.480;13.348;2024-03-07T02:13:14;102198.13;;;11.57;57.08
7264;BME280;3673;52.480;13.348;2024-03-07T02:15:41;102204.78;;;10.98;58.16
7264;BME280;3673;52.480;13.348;2024-03-07T02:18:08;102198.22;;;11.18;57.81
7264;BME280;3673;52.480;13.348;2024-03-07T02:20:35;102200.59;;;11.51;56.43
7264;BME280;3673;52.480;13.348;2024-03-07T02:23:03;102193.25;;;11.30;57.00
7264;BME280;3673;52.480;13.348;2024-03-07T02:25:30;102190.47;;;11.24;57.38
7264;BME280;3673;52.480;13.348;2024-03-07T02:27:58;102193.03;;;11.21;57.71
7264;BME280;3673;52.480;13.348;2024-03-07T02:30:24;102187.84;;;11.23;57.49
7264;BME280;3673;52.480;13.348;2024-03-07T02:32:51;102191.34;;;11.23;57.73
7264;BME280;3673;52.480;13.348;2024-03-07T02:35:20;102180.06;;;11.27;57.55
7264;BME280;3673;52.480;13.348;2024-03-07T02:37:47;102183.78;;;10.95;58.41
7264;BME280;3673;52.480;13.348;2024-03-07T02:40:16;102176.88;;;10.99;58.65
7264;BME280;3673;52.480;13.348;2024-03-07T02:42:43;102173.13;;;10.86;58.51
7264;BME280;3673;52.480;13.348;2024-03-07T02:45:09;102178.31;;;10.83;58.48
7264;BME280;3673;52.480;13.348;2024-03-07T02:47:38;102181.16;;;10.94;58.40
7264;BME280;3673;52.480;13.348;2024-03-07T02:50:08;102181.44;;;11.09;58.54
7264;BME280;3673;52.480;13.348;2024-03-07T02:52:35;102174.16;;;10.94;59.03
7264;BME280;3673;52.480;13.348;2024-03-07T02:55:02;102186.03;;;10.77;59.10
7264;BME280;3673;52.480;13.348;2024-03-07T02:57:31;102188.06;;;10.92;58.27
7264;BME280;3673;52.480;13.348;2024-03-07T02:59:59;102180.91;;;10.83;58.80
7264;BME280;3673;52.480;13.348;2024-03-07T03:02:26;102181.34;;;11.03;58.39
7264;BME280;3673;52.480;13.348;2024-03-07T03:04:52;102178.47;;;10.92;58.75
7264;BME280;3673;52.480;13.348;2024-03-07T03:07:20;102181.09;;;10.91;58.47
7264;BME280;3673;52.480;13.348;2024-03-07T03:09:46;102188.66;;;10.78;58.93
7264;BME280;3673;52.480;13.348;2024-03-07T03:12:14;102190.09;;;10.64;59.11
7264;BME280;3673;52.480;13.348;2024-03-07T03:14:42;102186.69;;;10.67;58.70
7264;BME280;3673;52.480;13.348;2024-03-07T03:17:09;102187.56;;;10.67;58.78
7264;BME280;3673;52.480;13.348;2024-03-07T03:19:36;102182.59;;;10.79;58.33
7264;BME280;3673;52.480;13.348;2024-03-07T03:22:03;102184.03;;;10.65;58.90
7264;BME280;3673;52.480;13.348;2024-03-07T03:24:30;102183.91;;;10.61;58.98
7264;BME280;3673;52.480;13.348;2024-03-07T03:26:57;102186.16;;;10.44;59.30
7264;BME280;3673;52.480;13.348;2024-03-07T03:29:23;102187.47;;;10.63;58.96
7264;BME280;3673;52.480;13.348;2024-03-07T03:31:52;102177.53;;;10.48;59.00
7264;BME280;3673;52.480;13.348;2024-03-07T03:34:18;102204.56;;;10.47;59.15
7264;BME280;3673;52.480;13.348;2024-03-07T03:36:46;102189.31;;;10.67;58.44
7264;BME280;3673;52.480;13.348;2024-03-07T03:39:13;102208.91;;;10.47;59.26
7264;BME280;3673;52.480;13.348;2024-03-07T03:41:41;102192.72;;;10.64;58.84
7264;BME280;3673;52.480;13.348;2024-03-07T03:44:07;102198.69;;;10.57;59.11
7264;BME280;3673;52.480;13.348;2024-03-07T03:46:34;102202.00;;;10.50;59.10
7264;BME280;3673;52.480;13.348;2024-03-07T03:49:03;102188.09;;;10.53;58.78
7264;BME280;3673;52.480;13.348;2024-03-07T03:51:31;102209.31;;;10.65;58.85
7264;BME280;3673;52.480;13.348;2024-03-07T03:53:58;102202.22;;;10.61;57.87
7264;BME280;3673;52.480;13.348;2024-03-07T03:56:24;102202.97;;;10.54;58.32
7264;BME280;3673;52.480;13.348;2024-03-07T03:58:52;102203.69;;;10.48;58.31
7264;BME280;3673;52.480;13.348;2024-03-07T04:01:18;102201.19;;;10.54;58.20
7264;BME280;3673;52.480;13.348;2024-03-07T04:03:45;102207.25;;;10.52;58.02
7264;BME280;3673;52.480;13.348;2024-03-07T04:06:14;102212.47;;;10.50;58.11
7264;BME280;3673;52.480;13.348;2024-03-07T04:08:41;102210.56;;;10.43;57.98
7264;BME280;3673;52.480;13.348;2024-03-07T04:11:08;102210.94;;;10.60;57.64
7264;BME280;3673;52.480;13.348;2024-03-07T04:13:35;102211.19;;;10.33;57.93
7264;BME280;3673;52.480;13.348;2024-03-07T04:16:02;102212.09;;;10.35;57.61
7264;BME280;3673;52.480;13.348;2024-03-07T04:18:30;102221.69;;;10.34;58.14
7264;BME280;3673;52.480;13.348;2024-03-07T04:20:57;102217.91;;;9.89;58.85
7264;BME280;3673;52.480;13.348;2024-03-07T04:23:25;102215.16;;;10.17;58.20
7264;BME280;3673;52.480;13.348;2024-03-07T04:25:53;102216.25;;;10.25;57.78
7264;BME280;3673;52.480;13.348;2024-03-07T04:28:21;102212.59;;;10.19;57.45
7264;BME280;3673;52.480;13.348;2024-03-07T04:30:48;102216.91;;;10.17;57.83
7264;BME280;3673;52.480;13.348;2024-03-07T04:33:15;102214.50;;;10.26;57.56
7264;BME280;3673;52.480;13.348;2024-03-07T04:35:42;102213.56;;;10.22;57.46
7264;BME280;3673;52.480;13.348;2024-03-07T04:38:08;102217.69;;;10.14;57.98
7264;BME280;3673;52.480;13.348;2024-03-07T04:40:41;102220.69;;;10.29;57.30
7264;BME280;3673;52.480;13.348;2024-03-07T04:43:08;102223.97;;;9.88;57.97
7264;BME280;3673;52.480;13.348;2024-03-07T04:45:35;102228.72;;;10.03;58.25
7264;BME280;3673;52.480;13.348;2024-03-07T04:48:03;102231.66;;;9.80;58.50
7264;BME280;3673;52.480;13.348;2024-03-07T04:50:30;102221.25;;;10.16;57.12
7264;BME280;3673;52.480;13.348;2024-03-07T04:52:57;102223.91;;;9.85;57.95
7264;BME280;3673;52.480;13.348;2024-03-07T04:55:24;102219.06;;;10.00;57.89
7264;BME280;3673;52.480;13.348;2024-03-07T04:57:52;102219.94;;;9.66;58.47
7264;BME280;3673;52.480;13.348;2024-03-07T05:00:18;102228.00;;;9.75;58.34
7264;BME280;3673;52.480;13.348;2024-03-07T05:02:47;102227.53;;;9.90;57.69
7264;BME280;3673;52.480;13.348;2024-03-07T05:05:15;102227.56;;;9.92;58.00
7264;BME280;3673;52.480;13.348;2024-03-07T05:07:48;102231.47;;;9.74;58.31
7264;BME280;3673;52.480;13.348;2024-03-07T05:10:16;102224.22;;;9.64;58.24
7264;BME280;3673;52.480;13.348;2024-03-07T05:12:43;102233.28;;;9.77;57.66
7264;BME280;3673;52.480;13.348;2024-03-07T05:15:11;102233.09;;;9.71;57.62
7264;BME280;3673;52.480;13.348;2024-03-07T05:17:38;102231.03;;;9.91;57.24
7264;BME280;3673;52.480;13.348;2024-03-07T05:20:09;102230.59;;;9.74;57.63
7264;BME280;3673;52.480;13.348;2024-03-07T05:22:37;102234.81;;;9.69;57.95
7264;BME280;3673;52.480;13.348;2024-03-07T05:25:06;102236.97;;;9.52;57.43
7264;BME280;3673;52.480;13.348;2024-03-07T05:27:33;102241.47;;;9.58;57.30
7264;BME280;3673;52.480;13.348;2024-03-07T05:30:02;102242.75;;;9.41;57.81
7264;BME280;3673;52.480;13.348;2024-03-07T05:32:31;102238.75;;;9.53;57.87
7264;BME280;3673;52.480;13.348;2024-03-07T05:34:59;102244.50;;;9.73;56.86
7264;BME280;3673;52.480;13.348;2024-03-07T05:37:27;102247.03;;;9.70;57.19
7264;BME280;3673;52.480;13.348;2024-03-07T05:39:53;102246.06;;;9.66;57.16
7264;BME280;3673;52.480;13.348;2024-03-07T05:42:20;102241.72;;;9.67;57.38
7264;BME280;3673;52.480;13.348;2024-03-07T05:44:47;102251.88;;;9.25;58.02
7264;BME280;3673;52.480;13.348;2024-03-07T05:47:14;102251.25;;;9.34;58.17
7264;BME280;3673;52.480;13.348;2024-03-07T05:49:43;102257.47;;;9.39;58.47
7264;BME280;3673;52.480;13.348;2024-03-07T05:52:10;102264.50;;;9.11;59.13
7264;BME280;3673;52.480;13.348;2024-03-07T05:54:36;102255.41;;;9.27;58.58
7264;BME280;3673;52.480;13.348;2024-03-07T05:57:03;102269.53;;;9.34;58.69
7264;BME280;3673;52.480;13.348;2024-03-07T05:59:32;102263.38;;;9.31;58.50
7264;BME280;3673;52.480;13.348;2024-03-07T06:01:59;102256.91;;;9.19;58.94
7264;BME280;3673;52.480;13.348;2024-03-07T06:04:26;102267.34;;;9.19;58.52
7264;BME280;3673;52.480;13.348;2024-03-07T06:06:54;102262.44;;;9.29;58.04
7264;BME280;3673;52.480;13.348;2024-03-07T06:09:21;102264.44;;;9.08;57.93
7264;BME280;3673;52.480;13.348;2024-03-07T06:11:48;102264.50;;;9.11;58.14
7264;BME280;3673;52.480;13.348;2024-03-07T06:14:16;102265.88;;;9.27;58.47
7264;BME280;3673;52.480;13.348;2024-03-07T06:16:43;102264.56;;;9.13;58.37
7264;BME280;3673;52.480;13.348;2024-03-07T06:19:10;102272.50;;;9.46;56.95
7264;BME280;3673;52.480;13.348;2024-03-07T06:21:39;102271.50;;;9.41;56.86
7264;BME280;3673;52.480;13.348;2024-03-07T06:24:09;102266.53;;;9.20;56.79
7264;BME280;3673;52.480;13.348;2024-03-07T06:26:37;102276.09;;;9.19;56.20
7264;BME280;3673;52.480;13.348;2024-03-07T06:29:12;102275.16;;;9.47;55.59
7264;BME280;3673;52.480;13.348;2024-03-07T06:31:39;102274.69;;;9.30;55.66
7264;BME280;3673;52.480;13.348;2024-03-07T06:34:06;102266.34;;;9.44;55.49
7264;BME280;3673;52.480;13.348;2024-03-07T06:36:34;102281.31;;;9.19;56.28
7264;BME280;3673;52.480;13.348;2024-03-07T06:39:01;102273.06;;;9.36;56.06
7264;BME280;3673;52.480;13.348;2024-03-07T06:41:31;102270.41;;;9.65;55.21
7264;BME280;3673;52.480;13.348;2024-03-07T06:43:58;102281.81;;;9.38;54.81
7264;BME280;3673;52.480;13.348;2024-03-07T06:46:25;102279.06;;;9.63;54.43
7264;BME280;3673;52.480;13.348;2024-03-07T06:48:52;102280.66;;;9.28;54.39
7264;BME280;3673;52.480;13.348;2024-03-07T06:51:19;102283.31;;;9.59;54.11
7264;BME280;3673;52.480;13.348;2024-03-07T06:53:46;102288.41;;;9.25;53.25
7264;BME280;3673;52.480;13.348;2024-03-07T06:56:13;102301.00;;;9.38;52.65
7264;BME280;3673;52.480;13.348;2024-03-07T06:58:41;102288.97;;;9.43;52.77
7264;BME280;3673;52.480;13.348;2024-03-07T07:01:08;102293.69;;;9.26;52.58
7264;BME280;3673;52.480;13.348;2024-03-07T07:03:36;102292.41;;;9.12;53.22
7264;BME280;3673;52.480;13.348;2024-03-07T07:06:04;102295.03;;;9.42;52.76
7264;BME280;3673;52.480;13.348;2024-03-07T07:08:32;102297.63;;;9.42;52.28
7264;BME280;3673;52.480;13.348;2024-03-07T07:10:59;102305.25;;;9.35;51.99
7264;BME280;3673;52.480;13.348;2024-03-07T07:13:26;102306.44;;;9.46;51.41
7264;BME280;3673;52.480;13.348;2024-03-07T07:15:54;102301.53;;;9.56;51.10
7264;BME280;3673;52.480;13.348;2024-03-07T07:18:21;102300.56;;;9.23;51.52
7264;BME280;3673;52.480;13.348;2024-03-07T07:20:49;102307.41;;;9.49;50.42
7264;BME280;3673;52.480;13.348;2024-03-07T07:23:17;102306.16;;;9.66;49.74
7264;BME280;3673;52.480;13.348;2024-03-07T07:25:44;102305.72;;;9.51;50.00
7264;BME280;3673;52.480;13.348;2024-03-07T07:28:11;102304.31;;;9.32;50.12
7264;BME280;3673;52.480;13.348;2024-03-07T07:30:39;102304.22;;;9.59;49.23
7264;BME280;3673;52.480;13.348;2024-03-07T07:33:07;102301.38;;;9.52;49.60
7264;BME280;3673;52.480;13.348;2024-03-07T07:35:33;102313.44;;;9.47;49.35
7264;BME280;3673;52.480;13.348;2024-03-07T07:38:00;102299.50;;;9.77;48.85
7264;BME280;3673;52.480;13.348;2024-03-07T07:40:27;102300.66;;;9.87;47.64
7264;BME280;3673;52.480;13.348;2024-03-07T07:42:56;102298.06;;;9.89;47.76
7264;BME280;3673;52.480;13.348;2024-03-07T07:45:23;102295.31;;;9.84;47.94
7264;BME280;3673;52.480;13.348;2024-03-07T07:47:52;102300.13;;;9.69;48.01
7264;BME280;3673;52.480;13.348;2024-03-07T07:50:23;102297.31;;;9.93;47.40
7264;BME280;3673;52.480;13.348;2024-03-07T07:52:51;102293.31;;;9.74;46.88
7264;BME280;3673;52.480;13.348;2024-03-07T07:55:20;102290.19;;;9.87;46.94
7264;BME280;3673;52.480;13.348;2024-03-07T07:57:50;102303.88;;;10.10;46.09
7264;BME280;3673;52.480;13.348;2024-03-07T08:00:19;102295.53;;;9.92;46.96
7264;BME280;3673;52.480;13.348;2024-03-07T08:02:50;102302.06;;;10.07;45.96
7264;BME280;3673;52.480;13.348;2024-03-07T08:05:19;102297.94;;;10.15;45.75
7264;BME280;3673;52.480;13.348;2024-03-07T08:07:49;102297.00;;;9.82;46.10
7264;BME280;3673;52.480;13.348;2024-03-07T08:10:17;102298.22;;;10.27;45.40
7264;BME280;3673;52.480;13.348;2024-03-07T08:12:45;102301.50;;;10.19;45.53
7264;BME280;3673;52.480;13.348;2024-03-07T08:15:12;102295.00;;;10.38;45.38
7264;BME280;3673;52.480;13.348;2024-03-07T08:17:41;102307.09;;;10.32;45.21
7264;BME280;3673;52.480;13.348;2024-03-07T08:20:11;102298.06;;;10.20;45.82
7264;BME280;3673;52.480;13.348;2024-03-07T08:22:40;102292.69;;;10.15;46.04
7264;BME280;3673;52.480;13.348;2024-03-07T08:25:09;102300.88;;;10.63;45.20
7264;BME280;3673;52.480;13.348;2024-03-07T08:27:37;102296.78;;;10.39;45.61
7264;BME280;3673;52.480;13.348;2024-03-07T08:30:05;102297.31;;;10.25;44.70
7264;BME280;3673;52.480;13.348;2024-03-07T08:32:33;102296.31;;;10.55;44.64
7264;BME280;3673;52.480;13.348;2024-03-07T08:35:03;102301.09;;;10.37;44.51
7264;BME280;3673;52.480;13.348;2024-03-07T08:37:35;102301.25;;;10.43;43.73
7264;BME280;3673;52.480;13.348;2024-03-07T08:40:06;102312.38;;;10.70;43.57
7264;BME280;3673;52.480;13.348;2024-03-07T08:42:36;102300.34;;;10.42;44.08
7264;BME280;3673;52.480;13.348;2024-03-07T08:45:04;102300.19;;;10.70;43.98
7264;BME280;3673;52.480;13.348;2024-03-07T08:47:31;102317.56;;;10.67;43.77
7264;BME280;3673;52.480;13.348;2024-03-07T08:49:59;102311.72;;;10.78;43.61
7264;BME280;3673;52.480;13.348;2024-03-07T08:52:26;102314.56;;;10.89;43.65
7264;BME280;3673;52.480;13.348;2024-03-07T08:54:54;102308.34;;;10.48;43.78
7264;BME280;3673;52.480;13.348;2024-03-07T08:57:22;102303.38;;;10.57;43.70
7264;BME280;3673;52.480;13.348;2024-03-07T08:59:49;102301.63;;;10.95;43.18
7264;BME280;3673;52.480;13.348;2024-03-07T09:02:16;102300.06;;;11.03;42.12
7264;BME280;3673;52.480;13.348;2024-03-07T09:04:43;102305.84;;;10.89;42.63
7264;BME280;3673;52.480;13.348;2024-03-07T09:07:10;102307.94;;;11.03;42.52
7264;BME280;3673;52.480;13.348;2024-03-07T09:09:37;102310.31;;;10.94;42.51
7264;BME280;3673;52.480;13.348;2024-03-07T09:12:05;102301.22;;;11.16;41.41
7264;BME280;3673;52.480;13.348;2024-03-07T09:14:33;102304.38;;;11.01;41.97
7264;BME280;3673;52.480;13.348;2024-03-07T09:17:01;102299.44;;;11.15;41.81
7264;BME280;3673;52.480;13.348;2024-03-07T09:19:28;102287.56;;;11.30;40.60
7264;BME280;3673;52.480;13.348;2024-03-07T09:21:54;102288.28;;;11.23;40.76
7264;BME280;3673;52.480;13.348;2024-03-07T09:24:22;102285.19;;;11.43;40.44
7264;BME280;3673;52.480;13.348;2024-03-07T09:26:48;102290.31;;;11.38;40.28
7264;BME280;3673;52.480;13.348;2024-03-07T09:29:17;102289.59;;;11.44;39.72
7264;BME280;3673;52.480;13.348;2024-03-07T09:31:46;102288.88;;;11.52;39.35
7264;BME280;3673;52.480;13.348;2024-03-07T09:34:13;102293.06;;;11.43;39.52
7264;BME280;3673;52.480;13.348;2024-03-07T09:36:40;102283.22;;;11.32;39.27
7264;BME280;3673;52.480;13.348;2024-03-07T09:39:08;102280.44;;;11.67;38.92
7264;BME280;3673;52.480;13.348;2024-03-07T09:41:35;102289.28;;;11.70;39.12
7264;BME280;3673;52.480;13.348;2024-03-07T09:44:02;102288.66;;;11.83;37.93
7264;BME280;3673;52.480;13.348;2024-03-07T09:46:30;102292.03;;;11.78;37.80
7264;BME280;3673;52.480;13.348;2024-03-07T09:48:59;102280.91;;;11.90;37.16
7264;BME280;3673;52.480;13.348;2024-03-07T09:51:27;102289.94;;;11.62;37.11
7264;BME280;3673;52.480;13.348;2024-03-07T09:53:57;102287.28;;;12.04;36.75
7264;BME280;3673;52.480;13.348;2024-03-07T09:56:26;102271.88;;;11.74;37.00
7264;BME280;3673;52.480;13.348;2024-03-07T09:58:56;102270.47;;;11.49;37.09
7264;BME280;3673;52.480;13.348;2024-03-07T10:01:26;102271.34;;;11.93;36.72
7264;BME280;3673;52.480;13.348;2024-03-07T10:04:01;102259.00;;;12.37;35.33
7264;BME280;3673;52.480;13.348;2024-03-07T10:06:35;102265.75;;;12.23;34.89
7264;BME280;3673;52.480;13.348;2024-03-07T10:09:02;102270.13;;;12.79;34.38
7264;BME280;3673;52.480;13.348;2024-03-07T10:11:30;102264.34;;;13.03;32.68
7264;BME280;3673;52.480;13.348;2024-03-07T10:13:57;102270.75;;;13.20;33.27
7264;BME280;3673;52.480;13.348;2024-03-07T10:16:23;102267.47;;;13.41;33.09
7264;BME280;3673;52.480;13.348;2024-03-07T10:18:50;102264.34;;;13.03;33.45
7264;BME280;3673;52.480;13.348;2024-03-07T10:21:20;102269.13;;;13.31;33.06
7264;BME280;3673;52.480;13.348;2024-03-07T10:23:47;102269.50;;;13.65;32.26
7264;BME280;3673;52.480;13.348;2024-03-07T10:26:15;102264.56;;;13.95;31.86
7264;BME280;3673;52.480;13.348;2024-03-07T10:28:43;102258.69;;;14.23;31.01
7264;BME280;3673;52.480;13.348;2024-03-07T10:31:09;102266.66;;;14.32;30.85
7264;BME280;3673;52.480;13.348;2024-03-07T10:33:40;102259.34;;;14.00;31.08
7264;BME280;3673;52.480;13.348;2024-03-07T10:36:10;102255.16;;;14.21;30.63
7264;BME280;3673;52.480;13.348;2024-03-07T10:38:40;102256.94;;;14.24;30.57
7264;BME280;3673;52.480;13.348;2024-03-07T10:41:07;102260.38;;;14.18;30.18
7264;BME280;3673;52.480;13.348;2024-03-07T10:43:36;102250.28;;;14.70;29.72
7264;BME280;3673;52.480;13.348;2024-03-07T10:46:09;102237.09;;;14.71;29.51
7264;BME280;3673;52.480;13.348;2024-03-07T10:48:39;102233.56;;;14.63;29.94
7264;BME280;3673;52.480;13.348;2024-03-07T10:51:14;102227.53;;;14.82;29.86
7264;BME280;3673;52.480;13.348;2024-03-07T10:53:56;102227.84;;;15.55;29.95
7264;BME280;3673;52.480;13.348;2024-03-07T10:56:41;102238.50;;;16.01;29.53
7264;BME280;3673;52.480;13.348;2024-03-07T10:59:16;102226.16;;;15.98;29.52
7264;BME280;3673;52.480;13.348;2024-03-07T11:01:53;102233.19;;;16.16;29.99
7264;BME280;3673;52.480;13.348;2024-03-07T11:04:25;102223.50;;;16.59;29.09
7264;BME280;3673;52.480;13.348;2024-03-07T11:06:53;102224.34;;;16.71;29.74
7264;BME280;3673;52.480;13.348;2024-03-07T11:09:23;102229.53;;;17.09;29.08
7264;BME280;3673;52.480;13.348;2024-03-07T11:11:50;102221.56;;;17.12;28.92
7264;BME280;3673;52.480;13.348;2024-03-07T11:14:17;102220.50;;;17.56;27.09
7264;BME280;3673;52.480;13.348;2024-03-07T11:16:45;102223.38;;;17.10;27.21
7264;BME280;3673;52.480;13.348;2024-03-07T11:19:20;102221.75;;;16.21;27.15
7264;BME280;3673;52.480;13.348;2024-03-07T11:21:52;102211.97;;;16.88;27.97
7264;BME280;3673;52.480;13.348;2024-03-07T11:24:25;102206.75;;;16.58;28.90
7264;BME280;3673;52.480;13.348;2024-03-07T11:26:55;102198.66;;;17.17;27.46
7264;BME280;3673;52.480;13.348;2024-03-07T11:29:50;102208.75;;;17.97;27.12
7264;BME280;3673;52.480;13.348;2024-03-07T11:32:20;102193.25;;;17.32;27.55
7264;BME280;3673;52.480;13.348;2024-03-07T11:34:48;102198.50;;;17.43;27.69
7264;BME280;3673;52.480;13.348;2024-03-07T11:37:20;102184.38;;;17.45;27.06
7264;BME280;3673;52.480;13.348;2024-03-07T11:40:09;102185.63;;;18.16;26.64
7264;BME280;3673;52.480;13.348;2024-03-07T11:42:45;102195.72;;;17.70;26.55
7264;BME280;3673;52.480;13.348;2024-03-07T11:45:13;102195.66;;;17.81;25.39
7264;BME280;3673;52.480;13.348;2024-03-07T11:47:51;102190.25;;;17.93;25.87
7264;BME280;3673;52.480;13.348;2024-03-07T11:50:23;102191.59;;;17.12;26.27
7264;BME280;3673;52.480;13.348;2024-03-07T11:52:52;102188.91;;;17.25;26.09
7264;BME280;3673;52.480;13.348;2024-03-07T11:55:21;102186.00;;;17.69;25.86
7264;BME280;3673;52.480;13.348;2024-03-07T11:57:48;102172.31;;;18.24;25.37
7264;BME280;3673;52.480;13.348;2024-03-07T12:00:17;102179.22;;;18.38;24.81
7264;BME280;3673;52.480;13.348;2024-03-07T12:02:45;102177.75;;;18.10;25.52
7264;BME280;3673;52.480;13.348;2024-03-07T12:05:14;102167.75;;;18.39;24.91
7264;BME280;3673;52.480;13.348;2024-03-07T12:07:43;102168.19;;;18.81;24.47
7264;BME280;3673;52.480;13.348;2024-03-07T12:10:10;102165.94;;;18.44;24.52
7264;BME280;3673;52.480;13.348;2024-03-07T12:12:38;102160.88;;;18.19;24.50
7264;BME280;3673;52.480;13.348;2024-03-07T12:15:06;102166.94;;;17.11;26.54
7264;BME280;3673;52.480;13.348;2024-03-07T12:17:41;102157.06;;;17.40;25.91
7264;BME280;3673;52.480;13.348;2024-03-07T12:20:09;102154.44;;;17.36;25.97
7264;BME280;3673;52.480;13.348;2024-03-07T12:22:50;102154.28;;;17.62;25.81
7264;BME280;3673;52.480;13.348;2024-03-07T12:25:19;102144.25;;;18.05;25.40
7264;BME280;3673;52.480;13.348;2024-03-07T12:28:00;102149.06;;;17.57;25.80
7264;BME280;3673;52.480;13.348;2024-03-07T12:30:29;102145.81;;;18.24;24.91
7264;BME280;3673;52.480;13.348;2024-03-07T12:32:58;102142.00;;;18.52;23.88
7264;BME280;3673;52.480;13.348;2024-03-07T12:35:25;102143.78;;;18.55;23.63
7264;BME280;3673;52.480;13.348;2024-03-07T12:37:52;102132.75;;;18.06;24.66
7264;BME280;3673;52.480;13.348;2024-03-07T12:40:20;102125.22;;;18.48;24.64
7264;BME280;3673;52.480;13.348;2024-03-07T12:42:52;102149.78;;;17.76;24.53
7264;BME280;3673;52.480;13.348;2024-03-07T12:45:19;102132.53;;;18.27;24.27
7264;BME280;3673;52.480;13.348;2024-03-07T12:47:47;102125.78;;;17.97;24.48
7264;BME280;3673;52.480;13.348;2024-03-07T12:50:17;102128.75;;;17.51;25.67
7264;BME280;3673;52.480;13.348;2024-03-07T12:52:46;102122.31;;;17.90;25.15
7264;BME280;3673;52.480;13.348;2024-03-07T12:55:15;102120.53;;;17.91;24.18
7264;BME280;3673;52.480;13.348;2024-03-07T12:57:44;102132.25;;;17.63;24.30
7264;BME280;3673;52.480;13.348;2024-03-07T13:00:13;102115.25;;;17.89;23.67
7264;BME280;3673;52.480;13.348;2024-03-07T13:02:46;102122.56;;;18.48;22.68
7264;BME280;3673;52.480;13.348;2024-03-07T13:05:13;102109.16;;;19.29;21.91
7264;BME280;3673;52.480;13.348;2024-03-07T13:07:45;102116.81;;;18.91;21.78